Main page
METAR-TAF:

METAR-TAF

Airports :

Fairmont Municipal Airport

Fairmont, Minnesota, United States

latitude: 43-39N, longitude: 094-25W, elevation: 1161 ft

Current weather observation

The report was made 8 minutes ago, at 22:56 UTC
Wind 18 mph from the West with gusts up to 25 mph
Temperature 68°F
Humidity 37%
Pressure 29.66 in. Hg
Visibility: 10 miles
Clear sky

METAR: KFRM 222256Z AUTO 27016G22KT 10SM CLR 20/05 A2966 RMK AO2 PK WND 25026/2203 SLP049 T02000050

Time: 18:04 (23:04 UTC)


TAF: missing

Weather observations and forecasts of more than 4000 airports (METAR and TAF reports).

The available stations are represented by yellow and red dots on the map.

Hover mouse over dot to see the name of the station.

Then click to see weather observations and forecasts.

To change the map : click on the green buttons with a black cross to zoom in, on the green button with a dash to zoom out, or on the green arrows for adjacent maps.


METAR-TAF: